This is the latest recevied weather packets stored in our database for station/object KA1BMF-13. If no packets are shown the sender has not sent any weather packets the latest 10 day(s).
| Time | Temp. | Humidity | Pressure | Rain* | Wind** | Luminosity | Snow |
|---|---|---|---|---|---|---|---|
| 1777424117 | 11.67° C | 67% | 1017.8 hPa | 0 mm | - | 0 W/m² | - |
| 1777421719 | 12.78° C | 63% | 1017.7 hPa | 0 mm | - | 0 W/m² | - |
| 1777415718 | 15.56° C | 50% | 1017.4 hPa | 0 mm | - | 26 W/m² | - |
| 1777415117 | 16.11° C | 49% | 1017.3 hPa | 0 mm | - | 42 W/m² | - |
| 1777411518 | 17.22° C | 48% | 1017.4 hPa | 0 mm | - | 143 W/m² | - |
| 1777392918 | 16.67° C | 46% | 1020.1 hPa | 0 mm | - | 873 W/m² | - |
| 1777391119 | 16.67° C | 46% | 1020.2 hPa | 0 mm | - | 812 W/m² | - |
| 1777381518 | 12.78° C | 59% | 1020.9 hPa | 0 mm | - | 494 W/m² | - |
| 1777380920 | 12.22° C | 60% | 1021 hPa | 0 mm | - | 456 W/m² | - |
| 1777379130 | 11.11° C | 66% | 1021.2 hPa | 0 mm | - | 54 W/m² | - |
| 1777377330 | 8.33° C | 78% | 1021.2 hPa | 0 mm | - | 55 W/m² | - |
| 1777371319 | 5° C | 91% | 1021.2 hPa | 0 mm | - | 11 W/m² | - |
| 1777370119 | 5° C | 91% | 1021.2 hPa | 0 mm | - | 2 W/m² | - |
| 1777362918 | 5° C | 89% | 1021.2 hPa | 0 mm | - | 0 W/m² | - |
| 1777358719 | 6.11° C | 86% | 1021.2 hPa | 0 mm | - | 0 W/m² | - |
| 1777351518 | 7.22° C | 84% | 1022.2 hPa | 0 mm | - | 0 W/m² | - |
| 1777347320 | 8.33° C | 79% | 1023.5 hPa | 0 mm | - | 0 W/m² | - |
| 1777340719 | 10.56° C | 72% | 1024 hPa | 0 mm | - | 0 W/m² | - |
| 1777340119 | 10.56° C | 71% | 1023.9 hPa | 0 mm | - | 0 W/m² | - |
| 1777339516 | 11.11° C | 70% | 1023.8 hPa | 0 mm | - | 0 W/m² | - |
| 1777338919 | 11.11° C | 69% | 1023.7 hPa | 0 mm | - | 0 W/m² | - |
| 1777337137 | 11.67° C | 68% | 1023.5 hPa | 0 mm | - | 0 W/m² | - |
| 1777331718 | 15.56° C | 51% | 1022.6 hPa | 0 mm | - | 17 W/m² | - |
| 1777330539 | 16.11° C | 49% | 1022.5 hPa | 0 mm | - | 25 W/m² | - |
| 1777329316 | 16.11° C | 47% | 1022.6 hPa | 0 mm | - | 29 W/m² | - |
* Rain latest hour (hover to see other rain measurements)
** Current wind speed in m/s (hover to see current wind gust speed)